Time;durP1;ratioP1;P1;durP2;ratioP2;P2;SDS_P1;SDS_P2;PMS_P1;PMS_P2;Temp;Humidity;BMP_temperature;BMP_pressure;BME280_temperature;BME280_humidity;BME280_pressure;Samples;Min_cycle;Max_cycle;Signal;HPM_P1;HPM_P2
2024/03/17 00:00:44;;;;;;;6.13;2.53;;;4.60;99.90;;;;;;5047434;28;19944;-68
2024/03/17 00:03:10;;;;;;;;;;;4.60;99.90;;;;;;5048272;28;20021;-68
2024/03/17 00:05:36;;;;;;;15.65;3.28;;;4.60;99.90;;;;;;5047194;28;20998;-69
2024/03/17 00:08:04;;;;;;;;;;;4.60;99.90;;;;;;5047764;28;20074;-69
2024/03/17 00:10:32;;;;;;;16.30;4.57;;;4.50;99.90;;;;;;5047022;28;19904;-69
2024/03/17 00:12:58;;;;;;;12.98;3.15;;;4.50;99.90;;;;;;5047885;28;20025;-69
2024/03/17 00:15:24;;;;;;;;;;;4.50;99.90;;;;;;5047377;28;20070;-68
2024/03/17 00:17:49;;;;;;;11.18;3.45;;;4.50;99.90;;;;;;5047552;28;19909;-69
2024/03/17 00:20:19;;;;;;;;;;;4.50;99.90;;;;;;5047994;28;20021;-69
2024/03/17 00:22:49;;;;;;;7.70;3.40;;;4.60;99.90;;;;;;5047068;28;20403;-69
2024/03/17 00:25:14;;;;;;;9.27;3.10;;;4.50;99.90;;;;;;5047462;28;20029;-69
2024/03/17 00:27:43;;;;;;;;;;;4.50;99.90;;;;;;5047487;28;20098;-69
2024/03/17 00:30:12;;;;;;;6.47;2.70;;;4.50;99.90;;;;;;5047562;28;19905;-69
2024/03/17 00:32:38;;;;;;;8.95;3.15;;;4.50;99.90;;;;;;5047146;28;20478;-69
2024/03/17 00:35:05;;;;;;;11.07;3.53;;;4.40;99.90;;;;;;5047724;28;20472;-69
2024/03/17 00:37:30;;;;;;;10.70;3.35;;;4.40;99.90;;;;;;5047102;28;20040;-69
2024/03/17 00:39:56;;;;;;;;;;;4.30;99.90;;;;;;5048048;28;20021;-69
2024/03/17 00:42:21;;;;;;;13.15;4.82;;;4.30;99.90;;;;;;5046717;28;20363;-69
2024/03/17 00:44:47;;;;;;;;;;;4.30;99.90;;;;;;5048466;28;20017;-69
2024/03/17 00:47:13;;;;;;;10.57;4.05;;;4.30;99.90;;;;;;5047769;28;19904;-69
2024/03/17 00:49:38;;;;;;;;;;;4.20;99.90;;;;;;5047752;28;20472;-69
2024/03/17 00:52:04;;;;;;;16.35;5.78;;;4.20;99.90;;;;;;5047409;28;19909;-69
2024/03/17 00:54:29;;;;;;;;;;;4.20;99.90;;;;;;5047669;28;20041;-68
2024/03/17 00:56:55;;;;;;;12.00;6.18;;;4.20;99.90;;;;;;5047603;28;20003;-68
2024/03/17 00:59:20;;;;;;;;;;;4.20;99.90;;;;;;5047882;28;20016;-68
2024/03/17 01:01:46;;;;;;;20.63;4.63;;;4.20;99.90;;;;;;5047105;28;19912;-69
2024/03/17 01:04:11;;;;;;;16.27;5.38;;;4.10;99.90;;;;;;5047150;28;20079;-68
2024/03/17 01:06:40;;;;;;;;;;;4.10;99.90;;;;;;5050128;28;20025;-68
2024/03/17 01:09:06;;;;;;;9.02;3.88;;;4.10;99.90;;;;;;5050621;28;19999;-69
2024/03/17 01:11:32;;;;;;;;;;;4.10;99.90;;;;;;5050297;28;20079;-69
2024/03/17 01:13:57;;;;;;;8.35;3.53;;;4.10;99.90;;;;;;5050676;28;19909;-69
2024/03/17 01:16:23;;;;;;;;;;;4.10;99.90;;;;;;5050965;28;20647;-69
2024/03/17 01:18:48;;;;;;;21.83;4.35;;;4.10;99.90;;;;;;5049962;28;20339;-69
2024/03/17 01:21:14;;;;;;;;;;;4.10;99.90;;;;;;5050694;28;20441;-69
2024/03/17 01:23:39;;;;;;;15.88;4.43;;;4.00;99.90;;;;;;5049665;28;20310;-69
2024/03/17 01:26:05;;;;;;;;;;;4.00;99.90;;;;;;5051450;28;20021;-69
2024/03/17 01:28:31;;;;;;;14.13;3.97;;;4.00;99.90;;;;;;5049715;28;20263;-69
2024/03/17 01:30:56;;;;;;;;;;;4.00;99.90;;;;;;5050792;28;20021;-69
2024/03/17 01:33:22;;;;;;;9.65;3.05;;;4.00;99.90;;;;;;5050557;28;19917;-69
2024/03/17 01:35:47;;;;;;;;;;;3.90;99.90;;;;;;5050829;28;20017;-69
2024/03/17 01:38:13;;;;;;;16.27;2.75;;;3.90;99.90;;;;;;5050354;28;19909;-69
2024/03/17 01:40:38;;;;;;;;;;;3.90;99.90;;;;;;5050373;28;20017;-69
2024/03/17 01:43:04;;;;;;;16.52;3.13;;;3.90;99.90;;;;;;5050511;28;19995;-69
2024/03/17 01:45:33;;;;;;;;;;;3.90;99.90;;;;;;5050665;28;20099;-69
2024/03/17 01:48:02;;;;;;;6.40;1.95;;;3.90;99.90;;;;;;5050197;28;19911;-67
2024/03/17 01:50:35;;;;;;;11.52;3.00;;;3.90;99.90;;;;;;5049566;28;20035;-68
2024/03/17 01:53:04;;;;;;;14.27;3.03;;;3.90;99.90;;;;;;5050191;28;20108;-68
2024/03/17 01:55:32;;;;;;;12.63;2.38;;;3.90;99.90;;;;;;5050071;28;20095;-68
2024/03/17 01:57:58;;;;;;;8.52;2.67;;;3.90;99.90;;;;;;5050501;28;20025;-68
2024/03/17 02:00:23;;;;;;;;;;;3.90;99.90;;;;;;5050379;28;20593;-69
2024/03/17 02:02:49;;;;;;;7.13;3.08;;;3.90;99.90;;;;;;5049743;28;20369;-69
2024/03/17 02:05:14;;;;;;;;;;;3.90;99.90;;;;;;5050476;28;20021;-68
2024/03/17 02:07:40;;;;;;;13.25;3.45;;;3.80;99.90;;;;;;5049574;28;20337;-68
2024/03/17 02:10:06;;;;;;;;;;;3.80;99.90;;;;;;5050292;28;20032;-69
2024/03/17 02:12:31;;;;;;;8.93;4.38;;;3.80;99.90;;;;;;5049567;28;20305;-69
2024/03/17 02:15:00;;;;;;;;;;;3.80;99.90;;;;;;5050190;28;20033;-69
2024/03/17 02:17:27;;;;;;;9.07;3.25;;;3.80;99.90;;;;;;5048383;28;20383;-69
2024/03/17 02:19:52;;;;;;;7.15;2.78;;;3.80;99.90;;;;;;5049002;28;20021;-68
2024/03/17 02:22:18;;;;;;;;;;;3.80;99.90;;;;;;5049566;28;20036;-68
2024/03/17 02:24:44;;;;;;;6.72;2.47;;;3.70;99.90;;;;;;5049399;28;19908;-68
2024/03/17 02:27:10;;;;;;;;;;;3.70;99.90;;;;;;5049946;28;20032;-69
2024/03/17 02:29:36;;;;;;;11.63;3.55;;;3.70;99.90;;;;;;5048629;28;19909;-68
2024/03/17 02:32:06;;;;;;;15.65;2.83;;;3.70;99.90;;;;;;5049472;28;20040;-68
2024/03/17 02:34:36;;;;;;;7.28;3.30;;;3.70;99.90;;;;;;5049510;28;20029;-68
2024/03/17 02:37:03;;;;;;;11.93;2.92;;;3.70;99.90;;;;;;5049156;28;20009;-68
2024/03/17 02:39:35;;;;;;;9.63;3.38;;;3.70;99.90;;;;;;5048775;28;20571;-69
2024/03/17 02:42:06;;;;;;;13.65;3.20;;;3.70;99.90;;;;;;5049201;28;20459;-69
2024/03/17 02:44:33;;;;;;;9.57;3.45;;;3.70;99.90;;;;;;5049532;28;20033;-69
2024/03/17 02:47:00;;;;;;;10.38;2.60;;;3.70;99.90;;;;;;5048548;28;20021;-69
2024/03/17 02:49:27;;;;;;;14.23;3.55;;;3.70;99.90;;;;;;5049198;28;20039;-69
2024/03/17 02:51:54;;;;;;;7.43;3.28;;;3.70;99.90;;;;;;5048169;28;20115;-69
2024/03/17 02:54:20;;;;;;;18.13;3.70;;;3.70;99.90;;;;;;5049267;28;20071;-69
2024/03/17 02:56:46;;;;;;;18.23;5.25;;;3.70;99.90;;;;;;5048718;28;20112;-69
2024/03/17 02:59:12;;;;;;;20.27;5.43;;;3.70;99.90;;;;;;5048821;28;20021;-69
2024/03/17 03:01:37;;;;;;;;;;;3.70;99.90;;;;;;5048591;28;20109;-69
2024/03/17 03:04:03;;;;;;;15.27;5.10;;;3.70;99.90;;;;;;5049085;28;20284;-69
2024/03/17 03:06:28;;;;;;;;;;;3.70;99.90;;;;;;5049565;28;20117;-69
2024/03/17 03:08:54;;;;;;;23.55;6.50;;;3.60;99.90;;;;;;5048257;28;20347;-69
2024/03/17 03:11:19;;;;;;;;;;;3.60;99.90;;;;;;5048871;28;20555;-69
2024/03/17 03:13:45;;;;;;;16.30;5.80;;;3.60;99.90;;;;;;5048442;28;19909;-69
2024/03/17 03:16:13;;;;;;;13.85;4.78;;;3.60;99.90;;;;;;5048789;28;20043;-69
2024/03/17 03:18:39;;;;;;;13.60;4.97;;;3.50;99.90;;;;;;5048309;28;20036;-68
2024/03/17 03:21:05;;;;;;;;;;;3.50;99.90;;;;;;5049067;28;20029;-68
2024/03/17 03:23:31;;;;;;;10.93;4.50;;;3.50;99.90;;;;;;5048590;28;20008;-68
2024/03/17 03:25:57;;;;;;;;;;;3.40;99.90;;;;;;5048637;28;20103;-68
2024/03/17 03:28:23;;;;;;;18.90;4.43;;;3.40;99.90;;;;;;5048467;28;20369;-69
2024/03/17 03:30:49;;;;;;;9.98;4.38;;;3.40;99.90;;;;;;5047298;28;20040;-68
2024/03/17 03:33:14;;;;;;;;;;;3.40;99.90;;;;;;5049048;28;20021;-68
2024/03/17 03:35:40;;;;;;;14.45;4.60;;;3.40;99.90;;;;;;5048263;28;19905;-69
2024/03/17 03:38:05;;;;;;;;;;;3.40;99.90;;;;;;5049238;28;20052;-69
2024/03/17 03:40:32;;;;;;;5.97;3.20;;;3.40;99.90;;;;;;5048190;28;20362;-69
2024/03/17 03:42:58;;;;;;;15.07;4.80;;;3.40;99.90;;;;;;5048154;28;20115;-68
2024/03/17 03:45:23;;;;;;;;;;;3.40;99.90;;;;;;5048526;28;20550;-68
2024/03/17 03:47:50;;;;;;;13.63;4.30;;;3.40;99.90;;;;;;5047393;28;19913;-68
2024/03/17 03:50:19;;;;;;;12.32;4.53;;;3.40;99.90;;;;;;5047440;28;20025;-68
2024/03/17 03:52:45;;;;;;;13.38;4.68;;;3.30;99.90;;;;;;5046842;28;20115;-69
2024/03/17 03:55:14;;;;;;;;;;;3.30;99.90;;;;;;5048722;28;20108;-69
2024/03/17 03:57:46;;;;;;;12.57;5.32;;;3.30;99.90;;;;;;5047181;28;20003;-68
2024/03/17 04:00:12;;;;;;;15.45;5.55;;;3.30;99.90;;;;;;5048182;28;20071;-68
2024/03/17 04:02:41;;;;;;;16.63;5.57;;;3.30;99.90;;;;;;5046994;28;20503;-69
2024/03/17 04:05:08;;;;;;;19.35;5.13;;;3.30;99.90;;;;;;5048118;28;20029;-68
2024/03/17 04:07:35;;;;;;;20.80;5.80;;;3.30;99.90;;;;;;5047615;28;20066;-68
2024/03/17 04:10:01;;;;;;;16.40;6.28;;;3.30;99.90;;;;;;5047619;28;20037;-68
2024/03/17 04:12:28;;;;;;;18.80;5.03;;;3.30;99.90;;;;;;5047339;28;20056;-69
2024/03/17 04:14:55;;;;;;;13.98;4.78;;;3.30;99.90;;;;;;5047376;28;20372;-69
2024/03/17 04:17:23;;;;;;;14.70;5.30;;;3.30;99.90;;;;;;5067174;22;20037;-71
2024/03/17 04:19:50;;;;;;;9.60;5.05;;;3.30;99.90;;;;;;5055849;28;20075;-70
2024/03/17 04:22:19;;;;;;;15.07;5.18;;;3.30;99.90;;;;;;5053178;28;20025;-71
2024/03/17 04:24:53;;;;;;;15.85;6.38;;;3.40;99.90;;;;;;5051666;28;20029;-71
2024/03/17 04:27:19;;;;;;;12.88;4.95;;;3.50;99.90;;;;;;5055237;28;20483;-71
2024/03/17 04:29:47;;;;;;;15.18;6.20;;;3.50;99.90;;;;;;5055385;28;20079;-71
2024/03/17 04:32:14;;;;;;;11.35;5.63;;;3.60;99.90;;;;;;5060374;28;20028;-71
2024/03/17 04:34:39;;;;;;;18.10;4.30;;;3.60;99.90;;;;;;5050038;28;20028;-71
2024/03/17 04:37:05;;;;;;;;;;;3.60;99.90;;;;;;5059218;28;20017;-71
2024/03/17 04:39:31;;;;;;;11.35;3.42;;;3.60;99.90;;;;;;5057125;28;20256;-71
2024/03/17 04:41:57;;;;;;;9.27;4.05;;;3.70;99.90;;;;;;5056926;28;20036;-71
2024/03/17 04:44:22;;;;;;;;;;;3.70;99.90;;;;;;5054502;28;20641;-71
2024/03/17 04:46:48;;;;;;;10.73;3.13;;;3.80;99.90;;;;;;5059186;28;19955;-71
2024/03/17 04:49:14;;;;;;;;;;;3.90;99.90;;;;;;5057232;28;20036;-71
2024/03/17 04:51:39;;;;;;;8.30;4.32;;;3.80;99.90;;;;;;5063871;28;20278;-71
2024/03/17 04:54:07;;;;;;;;;;;3.80;99.90;;;;;;5057904;28;20506;-71
2024/03/17 04:56:32;;;;;;;12.50;3.72;;;3.90;99.90;;;;;;5059781;28;19988;-71
2024/03/17 04:58:58;;;;;;;8.48;4.60;;;3.90;99.90;;;;;;5057831;28;20452;-71
2024/03/17 05:01:24;;;;;;;;;;;3.90;99.90;;;;;;5055045;28;20048;-71
2024/03/17 05:03:52;;;;;;;11.30;3.20;;;3.90;99.90;;;;;;5056803;28;19912;-71
2024/03/17 05:06:18;;;;;;;12.82;4.82;;;4.00;99.90;;;;;;5058608;28;20028;-71
2024/03/17 05:08:44;;;;;;;;;;;4.00;99.90;;;;;;5058915;28;20069;-71
2024/03/17 05:11:10;;;;;;;12.25;4.55;;;4.00;99.90;;;;;;5062286;28;20294;-71
2024/03/17 05:13:38;;;;;;;11.43;4.55;;;4.00;99.90;;;;;;5059700;28;20056;-71
2024/03/17 05:16:04;;;;;;;12.15;4.88;;;4.00;99.90;;;;;;5055895;28;20071;-71
2024/03/17 05:18:32;;;;;;;16.95;5.68;;;4.10;99.90;;;;;;5060653;28;20036;-71
2024/03/17 05:21:03;;;;;;;11.65;5.55;;;4.10;99.90;;;;;;5055159;28;20045;-71
2024/03/17 05:23:29;;;;;;;12.30;5.15;;;4.10;99.90;;;;;;5054726;28;20159;-71
2024/03/17 05:25:56;;;;;;;19.65;5.03;;;4.10;99.90;;;;;;5059542;28;20029;-71
2024/03/17 05:28:22;;;;;;;14.80;4.00;;;4.20;99.90;;;;;;5065095;28;20021;-71
2024/03/17 05:30:50;;;;;;;9.38;4.55;;;4.20;99.90;;;;;;5057085;28;20056;-71
2024/03/17 05:33:21;;;;;;;14.85;4.65;;;4.30;99.90;;;;;;5062242;28;20031;-71
2024/03/17 05:35:55;;;;;;;9.88;4.32;;;4.30;99.90;;;;;;5053748;28;20024;-71
2024/03/17 05:38:21;;;;;;;11.95;5.60;;;4.30;99.90;;;;;;5058325;28;20383;-71
2024/03/17 05:40:58;;;;;;;8.38;4.45;;;4.30;99.90;;;;;;5052659;28;20035;-71
2024/03/17 05:43:24;;;;;;;;;;;4.30;99.90;;;;;;5052906;28;20098;-71
2024/03/17 05:45:51;;;;;;;15.35;6.15;;;4.40;99.90;;;;;;5057050;28;20418;-71
2024/03/17 05:48:17;;;;;;;16.85;7.60;;;4.40;99.90;;;;;;5061538;28;20032;-71
2024/03/17 05:50:42;;;;;;;;;;;4.40;99.90;;;;;;5053305;28;20033;-71
2024/03/17 05:53:08;;;;;;;20.60;8.90;;;4.40;99.90;;;;;;5053368;28;19909;-71
2024/03/17 05:55:35;;;;;;;;;;;4.40;99.90;;;;;;5067828;28;20117;-71
2024/03/17 05:58:01;;;;;;;17.13;7.22;;;4.40;99.90;;;;;;5056773;28;19904;-70
2024/03/17 06:00:26;;;;;;;15.73;5.95;;;4.40;99.90;;;;;;5060764;28;20036;-71
2024/03/17 06:02:52;;;;;;;;;;;4.40;99.90;;;;;;5056869;28;20028;-71
2024/03/17 06:05:17;;;;;;;16.02;4.97;;;4.40;99.90;;;;;;5060082;28;19958;-71
2024/03/17 06:07:43;;;;;;;;;;;4.50;99.90;;;;;;5056628;28;20037;-71
2024/03/17 06:10:09;;;;;;;20.17;4.90;;;4.50;99.90;;;;;;5061749;28;20184;-71
2024/03/17 06:12:34;;;;;;;17.23;7.03;;;4.50;99.90;;;;;;5059974;28;20556;-71
2024/03/17 06:15:01;;;;;;;;;;;4.50;99.90;;;;;;5053730;28;20115;-72
2024/03/17 06:17:27;;;;;;;15.07;6.18;;;4.50;99.90;;;;;;5056664;28;20365;-71
2024/03/17 06:19:52;;;;;;;;;;;4.60;99.90;;;;;;5057497;28;20123;-71
2024/03/17 06:22:18;;;;;;;8.93;4.43;;;4.60;99.90;;;;;;5053763;28;19908;-71
2024/03/17 06:24:43;;;;;;;15.65;5.80;;;4.70;99.90;;;;;;5058495;28;20490;-71
2024/03/17 06:27:09;;;;;;;;;;;4.70;99.90;;;;;;5055110;28;20061;-71
2024/03/17 06:29:34;;;;;;;14.70;4.18;;;4.80;99.90;;;;;;5058854;28;20023;-71
2024/03/17 06:32:00;;;;;;;;;;;4.80;99.90;;;;;;5058730;28;20068;-71
2024/03/17 06:34:26;;;;;;;7.20;3.63;;;4.90;99.90;;;;;;5059053;28;19943;-71
2024/03/17 06:36:51;;;;;;;11.60;4.03;;;5.00;99.90;;;;;;5052110;28;20021;-71
2024/03/17 06:39:19;;;;;;;;;;;5.00;99.90;;;;;;5060676;28;20021;-72
2024/03/17 06:41:45;;;;;;;7.93;3.50;;;5.10;99.90;;;;;;5059977;28;19954;-71
2024/03/17 06:44:10;;;;;;;;;;;5.10;99.90;;;;;;5055904;28;20017;-71
2024/03/17 06:46:36;;;;;;;12.13;4.30;;;5.30;99.90;;;;;;5058450;28;19909;-71
2024/03/17 06:49:01;;;;;;;;;;;5.30;99.90;;;;;;5055089;28;20391;-70
2024/03/17 06:51:27;;;;;;;8.90;3.63;;;5.30;99.90;;;;;;5055666;28;19955;-71
2024/03/17 06:53:52;;;;;;;;;;;5.40;99.90;;;;;;5051294;28;20036;-71
2024/03/17 06:56:18;;;;;;;6.97;4.43;;;5.40;99.90;;;;;;5062787;28;19912;-71
2024/03/17 06:58:43;;;;;;;;;;;5.50;99.90;;;;;;5059414;28;20486;-71
2024/03/17 07:01:09;;;;;;;8.77;4.13;;;5.60;99.90;;;;;;5053383;28;19911;-71
2024/03/17 07:03:35;;;;;;;10.38;3.95;;;5.60;99.90;;;;;;5053558;28;20031;-71
2024/03/17 07:06:05;;;;;;;;;;;5.70;99.90;;;;;;5055893;28;20024;-71
2024/03/17 07:08:31;;;;;;;12.85;3.80;;;5.70;99.90;;;;;;5056231;28;20284;-71
2024/03/17 07:11:05;;;;;;;7.47;4.43;;;5.80;99.90;;;;;;5051792;28;20383;-71
2024/03/17 07:13:33;;;;;;;10.60;4.82;;;5.90;99.90;;;;;;5051601;28;20029;-71
2024/03/17 07:15:59;;;;;;;8.80;4.22;;;6.00;99.90;;;;;;5059462;28;20021;-71
2024/03/17 07:18:27;;;;;;;13.45;6.07;;;6.00;99.90;;;;;;5058113;28;20398;-71
2024/03/17 07:20:52;;;;;;;9.68;3.88;;;6.10;99.90;;;;;;5057815;28;20025;-71
2024/03/17 07:23:18;;;;;;;;;;;6.20;99.90;;;;;;5055790;28;20030;-71
2024/03/17 07:25:55;;;;;;;13.82;4.35;;;6.30;99.90;;;;;;5056638;28;19913;-71
2024/03/17 07:28:20;;;;;;;9.98;4.85;;;6.40;99.90;;;;;;5055103;28;20056;-71
2024/03/17 07:30:53;;;;;;;;;;;6.40;99.90;;;;;;5054506;28;20106;-71
2024/03/17 07:33:22;;;;;;;12.20;3.83;;;6.40;99.90;;;;;;5056066;28;20418;-71
2024/03/17 07:35:48;;;;;;;10.10;3.78;;;6.40;99.90;;;;;;5055408;28;20036;-71
2024/03/17 07:38:14;;;;;;;;;;;6.50;99.90;;;;;;5055216;28;20167;-72
2024/03/17 07:40:39;;;;;;;9.60;3.08;;;6.60;99.90;;;;;;5053916;28;19995;-71
2024/03/17 07:43:05;;;;;;;;;;;6.60;99.90;;;;;;5058695;28;20509;-71
2024/03/17 07:45:30;;;;;;;10.05;3.90;;;6.70;99.90;;;;;;5050993;28;19908;-71
2024/03/17 07:47:56;;;;;;;;;;;6.80;99.90;;;;;;5056741;28;20041;-71
2024/03/17 07:50:21;;;;;;;18.35;6.22;;;6.80;99.90;;;;;;5059421;28;19917;-71
2024/03/17 07:52:46;;;;;;;;;;;6.80;99.90;;;;;;5063727;28;20039;-71
2024/03/17 07:55:12;;;;;;;8.60;3.97;;;6.80;99.90;;;;;;5057275;28;19992;-71
2024/03/17 07:57:38;;;;;;;;;;;6.90;99.90;;;;;;5057555;28;20487;-72
2024/03/17 08:00:05;;;;;;;13.00;4.50;;;6.90;99.90;;;;;;5053491;28;19962;-71
2024/03/17 08:02:30;;;;;;;8.98;4.88;;;6.90;99.90;;;;;;5050587;28;20028;-71
2024/03/17 08:04:55;;;;;;;;;;;6.90;99.90;;;;;;5056637;28;20039;-71
2024/03/17 08:07:21;;;;;;;7.88;3.63;;;7.00;99.90;;;;;;5063945;28;20285;-71
2024/03/17 08:09:46;;;;;;;;;;;7.10;99.90;;;;;;5057379;28;20036;-71
2024/03/17 08:12:12;;;;;;;11.90;4.95;;;7.10;99.90;;;;;;5057242;28;19912;-72
2024/03/17 08:14:37;;;;;;;;;;;7.10;99.90;;;;;;5060343;28;20416;-71
2024/03/17 08:17:03;;;;;;;18.33;4.97;;;7.30;99.90;;;;;;5056765;28;19917;-71
2024/03/17 08:19:28;;;;;;;;;;;7.30;99.90;;;;;;5058536;28;20029;-72
2024/03/17 08:21:54;;;;;;;8.07;3.17;;;7.40;99.90;;;;;;5049331;28;19904;-71
2024/03/17 08:24:19;;;;;;;;;;;7.40;99.90;;;;;;5057296;28;20036;-72
2024/03/17 08:26:45;;;;;;;16.27;3.72;;;7.60;99.90;;;;;;5054942;28;19934;-71
2024/03/17 08:29:11;;;;;;;;;;;7.60;99.90;;;;;;5056163;28;20071;-71
2024/03/17 08:31:37;;;;;;;13.88;4.55;;;7.60;99.90;;;;;;5060486;28;19904;-71
2024/03/17 08:34:02;;;;;;;;;;;7.60;99.90;;;;;;5054846;28;20367;-72
2024/03/17 08:36:28;;;;;;;11.07;4.80;;;7.60;99.90;;;;;;5055939;28;20367;-71
2024/03/17 08:38:54;;;;;;;12.40;5.35;;;7.70;99.90;;;;;;5051245;28;20029;-71
2024/03/17 08:41:20;;;;;;;14.55;4.28;;;7.80;99.90;;;;;;5057070;28;20017;-71
2024/03/17 08:43:46;;;;;;;;;;;7.90;99.90;;;;;;5051988;28;20078;-71
2024/03/17 08:46:13;;;;;;;14.23;3.33;;;8.00;99.90;;;;;;5055720;28;19912;-71
2024/03/17 08:48:40;;;;;;;9.32;3.58;;;8.10;99.90;;;;;;5061166;28;20020;-71
2024/03/17 08:51:07;;;;;;;19.83;3.65;;;8.20;99.90;;;;;;5056728;28;20024;-71
2024/03/17 08:53:34;;;;;;;13.35;3.17;;;8.40;99.90;;;;;;5053780;28;20505;-71
2024/03/17 08:56:00;;;;;;;17.70;4.45;;;8.50;99.90;;;;;;5051840;28;20096;-71
2024/03/17 08:58:26;;;;;;;;;;;8.50;99.90;;;;;;5057930;28;20033;-71
2024/03/17 09:00:51;;;;;;;10.00;2.72;;;8.50;99.90;;;;;;5056622;28;19912;-71
2024/03/17 09:03:17;;;;;;;;;;;8.60;99.90;;;;;;5051545;28;20494;-71
2024/03/17 09:05:44;;;;;;;13.40;4.18;;;8.50;99.90;;;;;;5054145;28;19913;-71
2024/03/17 09:08:20;;;;;;;17.38;3.63;;;8.50;99.90;;;;;;5053309;28;20029;-72
2024/03/17 09:10:46;;;;;;;12.82;4.00;;;8.50;99.90;;;;;;5053758;28;20108;-72
2024/03/17 09:13:17;;;;;;;11.73;3.40;;;8.60;99.90;;;;;;5054729;28;20163;-72
2024/03/17 09:16:02;;;;;;;12.00;5.20;;;8.70;99.90;;;;;;5055896;28;20107;-71
2024/03/17 09:18:35;;;;;;;10.35;3.28;;;8.80;99.90;;;;;;5055671;28;20043;-71
2024/03/17 09:21:03;;;;;;;8.85;3.05;;;8.90;99.90;;;;;;5053564;28;20438;-71
2024/03/17 09:23:29;;;;;;;13.45;4.13;;;9.00;99.90;;;;;;5050757;28;20107;-71
2024/03/17 09:25:55;;;;;;;13.40;4.43;;;9.00;99.90;;;;;;5061335;28;20048;-72
2024/03/17 09:28:21;;;;;;;15.80;3.15;;;9.10;99.90;;;;;;5056860;28;20479;-72
2024/03/17 09:30:47;;;;;;;;;;;9.20;99.90;;;;;;5060310;28;20127;-72
2024/03/17 09:33:12;;;;;;;11.65;3.47;;;9.20;99.90;;;;;;5059290;28;19912;-71
2024/03/17 09:35:38;;;;;;;;;;;9.20;99.90;;;;;;5059999;28;20334;-72
2024/03/17 09:38:04;;;;;;;12.02;3.70;;;9.30;99.90;;;;;;5063742;28;19909;-72
2024/03/17 09:40:30;;;;;;;13.43;3.65;;;9.40;99.90;;;;;;5059864;28;20025;-71
2024/03/17 09:42:56;;;;;;;8.38;3.00;;;9.50;99.90;;;;;;5062711;28;20108;-72
2024/03/17 09:45:24;;;;;;;;;;;9.60;99.90;;;;;;5059915;28;20116;-71
2024/03/17 09:47:49;;;;;;;16.27;2.92;;;9.70;99.90;;;;;;5055226;28;19939;-71
2024/03/17 09:50:15;;;;;;;;;;;9.60;99.90;;;;;;5055915;28;20640;-72
2024/03/17 09:52:42;;;;;;;11.15;2.75;;;9.80;99.90;;;;;;5056146;28;20363;-71
2024/03/17 09:55:16;;;;;;;6.93;2.50;;;9.80;99.90;;;;;;5058809;28;20111;-71
2024/03/17 09:57:43;;;;;;;13.55;3.00;;;9.90;99.40;;;;;;5052715;28;20295;-71
2024/03/17 10:00:14;;;;;;;11.32;3.08;;;9.90;99.70;;;;;;5057352;28;20104;-71
2024/03/17 10:02:45;;;;;;;12.02;3.13;;;10.00;99.90;;;;;;5051568;28;20028;-71
2024/03/17 10:05:22;;;;;;;11.05;3.42;;;10.10;99.60;;;;;;5061978;28;20028;-71
2024/03/17 10:07:51;;;;;;;11.25;4.28;;;10.10;99.50;;;;;;5051571;28;20419;-71
2024/03/17 10:10:20;;;;;;;21.17;6.13;;;10.10;99.10;;;;;;5059935;28;20029;-71
2024/03/17 10:12:54;;;;;;;11.73;3.78;;;10.10;99.80;;;;;;5051984;28;20029;-71
2024/03/17 10:15:21;;;;;;;12.63;4.35;;;10.10;99.00;;;;;;5058169;28;20103;-71
2024/03/17 10:17:46;;;;;;;11.80;4.03;;;10.20;99.10;;;;;;5070925;22;20124;-69
2024/03/17 10:20:15;;;;;;;;;;;10.20;99.00;;;;;;5050244;28;20566;-69
2024/03/17 10:22:57;;;;;;;6.50;2.90;;;10.30;99.30;;;;;;5029670;28;19931;-69
2024/03/17 10:25:23;;;;;;;7.50;3.30;;;10.50;98.40;;;;;;5028778;28;20395;-69
2024/03/17 10:27:48;;;;;;;;;;;10.60;98.30;;;;;;5030242;28;20022;-69
2024/03/17 10:30:19;;;;;;;17.90;4.32;;;10.60;98.30;;;;;;5029697;28;19955;-69
2024/03/17 10:32:46;;;;;;;9.80;3.92;;;10.80;98.40;;;;;;5029365;28;20040;-69
2024/03/17 10:35:27;;;;;;;15.05;5.25;;;11.10;97.10;;;;;;5029849;28;20017;-69
2024/03/17 10:37:54;;;;;;;13.55;4.88;;;11.10;96.30;;;;;;5028411;28;20017;-69
2024/03/17 10:40:20;;;;;;;11.80;5.07;;;11.00;96.90;;;;;;5028707;28;20527;-69
2024/03/17 10:42:48;;;;;;;;;;;11.20;97.00;;;;;;5029923;28;20109;-69
2024/03/17 10:45:13;;;;;;;10.85;3.72;;;11.40;96.40;;;;;;5029547;28;19911;-69
2024/03/17 10:47:40;;;;;;;;;;;11.40;95.60;;;;;;5029685;28;20033;-69
2024/03/17 10:50:15;;;;;;;10.27;4.60;;;11.50;95.40;;;;;;5029189;28;19905;-69
2024/03/17 10:52:46;;;;;;;12.70;4.20;;;11.60;95.40;;;;;;5029116;28;20025;-69
2024/03/17 10:55:22;;;;;;;13.80;5.95;;;11.50;95.10;;;;;;5029641;28;20029;-70
2024/03/17 10:57:49;;;;;;;14.77;5.50;;;11.30;95.80;;;;;;5028936;28;20024;-69
2024/03/17 11:00:17;;;;;;;12.27;4.15;;;11.50;96.00;;;;;;5029028;28;20080;-69
2024/03/17 11:02:45;;;;;;;11.10;4.85;;;11.60;94.80;;;;;;5029031;28;20059;-69
2024/03/17 11:05:33;;;;;;;14.23;5.82;;;11.60;95.50;;;;;;5028971;28;20033;-69
2024/03/17 11:08:01;;;;;;;11.35;4.78;;;11.40;94.60;;;;;;5029306;28;20029;-69
2024/03/17 11:10:33;;;;;;;11.45;4.93;;;11.40;95.20;;;;;;5028560;28;20283;-69
2024/03/17 11:13:00;;;;;;;14.13;4.22;;;11.60;95.20;;;;;;5029101;28;20784;-70
2024/03/17 11:15:38;;;;;;;19.05;6.43;;;11.80;95.30;;;;;;5028700;28;20082;-70
2024/03/17 11:18:12;;;;;;;9.45;5.20;;;11.90;94.10;;;;;;5028892;28;20484;-70
2024/03/17 11:20:43;;;;;;;7.95;4.32;;;11.90;94.00;;;;;;5028141;28;20041;-70
2024/03/17 11:23:09;;;;;;;18.90;6.25;;;11.90;94.00;;;;;;5029078;28;20025;-70
2024/03/17 11:25:38;;;;;;;11.02;5.57;;;11.90;93.60;;;;;;5028609;28;20083;-69
2024/03/17 11:28:09;;;;;;;8.68;4.55;;;11.60;93.30;;;;;;5028788;28;20112;-69
2024/03/17 11:30:44;;;;;;;14.80;5.32;;;11.50;93.80;;;;;;5027949;28;20044;-69
2024/03/17 11:33:31;;;;;;;13.60;3.83;;;11.40;93.70;;;;;;5028250;28;20394;-69
2024/03/17 11:36:18;;;;;;;9.85;4.30;;;11.30;93.50;;;;;;5028644;28;20014;-69
2024/03/17 11:39:00;;;;;;;11.07;4.65;;;11.30;92.80;;;;;;5028175;28;20159;-69
2024/03/17 11:41:37;;;;;;;10.65;4.88;;;11.20;92.90;;;;;;5027744;28;20104;-69
2024/03/17 11:44:18;;;;;;;9.90;5.13;;;11.20;93.50;;;;;;5028066;28;20082;-69
2024/03/17 11:47:01;;;;;;;10.55;3.88;;;11.20;93.20;;;;;;5028047;28;20022;-69
2024/03/17 11:49:33;;;;;;;10.30;4.10;;;11.20;93.60;;;;;;5027728;28;20109;-69
2024/03/17 11:52:03;;;;;;;10.38;6.18;;;11.10;93.20;;;;;;5027519;28;20092;-69
2024/03/17 11:54:31;;;;;;;12.50;4.60;;;11.10;93.50;;;;;;5027939;28;20431;-70
2024/03/17 11:57:05;;;;;;;9.85;4.13;;;11.00;93.50;;;;;;5028476;28;20025;-70
2024/03/17 11:59:31;;;;;;;9.30;3.95;;;11.10;93.00;;;;;;5028191;28;20030;-70
2024/03/17 12:01:57;;;;;;;12.98;4.57;;;11.00;92.40;;;;;;5027874;28;20044;-70
2024/03/17 12:04:24;;;;;;;;;;;10.80;92.60;;;;;;5028455;28;20030;-69
2024/03/17 12:06:59;;;;;;;14.68;8.25;;;10.70;92.80;;;;;;5028275;28;19916;-69
2024/03/17 12:09:31;;;;;;;11.77;4.82;;;10.60;93.10;;;;;;5027960;28;20041;-70
2024/03/17 12:12:11;;;;;;;8.52;4.75;;;10.50;92.80;;;;;;5027572;28;20472;-70
2024/03/17 12:14:37;;;;;;;11.23;5.22;;;10.50;92.80;;;;;;5028141;28;20030;-70
2024/03/17 12:17:07;;;;;;;14.65;5.43;;;10.50;93.00;;;;;;5028143;28;20029;-70
2024/03/17 12:19:33;;;;;;;21.67;8.32;;;10.40;92.90;;;;;;5027680;28;20395;-70
2024/03/17 12:22:00;;;;;;;37.50;19.38;;;10.40;93.40;;;;;;5027948;28;20028;-70
2024/03/17 12:24:27;;;;;;;10.70;5.00;;;10.50;93.70;;;;;;5027447;28;20026;-70
2024/03/17 12:26:59;;;;;;;9.77;6.25;;;10.60;94.10;;;;;;5027887;28;20022;-70
2024/03/17 12:29:32;;;;;;;8.48;4.75;;;10.70;93.40;;;;;;5027700;28;20021;-70
2024/03/17 12:32:07;;;;;;;4.88;4.30;;;10.80;92.50;;;;;;5027648;28;20021;-70
2024/03/17 12:34:34;;;;;;;14.27;7.18;;;10.80;92.50;;;;;;5027708;28;20025;-70
2024/03/17 12:37:00;;;;;;;8.13;5.20;;;10.90;93.20;;;;;;5028113;28;20088;-70
2024/03/17 12:39:34;;;;;;;9.65;5.70;;;10.90;91.80;;;;;;5027578;28;20538;-70
2024/03/17 12:42:08;;;;;;;7.13;4.30;;;10.80;92.30;;;;;;5027593;28;20049;-70
2024/03/17 12:44:41;;;;;;;10.65;5.75;;;10.90;93.00;;;;;;5027820;28;20041;-70
2024/03/17 12:47:08;;;;;;;8.27;4.82;;;11.10;93.70;;;;;;5028179;28;20036;-70
2024/03/17 12:49:34;;;;;;;8.55;4.82;;;11.30;94.10;;;;;;5027581;28;20057;-70
2024/03/17 12:52:00;;;;;;;;;;;11.50;92.40;;;;;;5027835;28;20450;-70
2024/03/17 12:54:27;;;;;;;10.48;5.13;;;11.60;92.70;;;;;;5027797;28;19905;-70
2024/03/17 13:02:33;;;;;;;8.50;4.85;;;11.60;91.10;;;;;;5029102;28;20450;-70
2024/03/17 13:05:05;;;;;;;;;;;11.50;91.00;;;;;;5031880;28;20017;-70
2024/03/17 13:07:31;;;;;;;8.68;5.15;;;11.60;91.90;;;;;;5030869;28;20363;-70
2024/03/17 13:09:56;;;;;;;;;;;11.60;91.30;;;;;;5031622;28;20031;-70
2024/03/17 13:12:22;;;;;;;9.90;5.30;;;11.60;92.20;;;;;;5031154;28;19924;-70
2024/03/17 13:14:47;;;;;;;18.08;5.80;;;11.60;91.30;;;;;;5030891;28;20124;-70
2024/03/17 13:17:16;;;;;;;;;;;11.60;91.70;;;;;;5031636;28;20033;-70